Sutherland, NE (69165)

10:03 PM CDT on May 29, 2017 (GMT -0500)
Cactus Hills | | Change Station

Elev 3091 ft 41.17 °N, 101.14 °W | Updated 7 seconds ago

Clear
Clear
59.5 °F
Feels Like 59.5 °F
N
3.6
Wind Variable Wind from WNW
Gusts 4.9 mph

Today
High -- | Low -- °F
--% Chance of Precip.
Yesterday
High -- | Low -- °F
Precip. -- in
Pressure 30.06 in
Visibility 10.0 miles
Clouds Clear
Dew Point 31 °F
Humidity 34%
Rainfall 0.00 in
Snow Depth Not available.
6:15 AM 9:08 PM
Waxing Crescent, 25% visible
METAR KLBF 300253Z AUTO 10003KT 10SM CLR 12/06 A3009 RMK AO2 SLP178 T01220056 53009
Pressure 30.06 in
Visibility 10.0 miles
Clouds Clear
Dew Point 31 °F
Humidity 34%
Rainfall 0.00 in
Snow Depth Not available.
6:15 AM 9:08 PM
Waxing Crescent, 25% visible
METAR KLBF 300253Z AUTO 10003KT 10SM CLR 12/06 A3009 RMK AO2 SLP178 T01220056 53009

Get Severe Weather Alerts

Thanks for signing up!

Be on the lookout for a verification email in your inbox.

You'll start receiving the daily forecast at 6 AM.

×

10-Day Weather Forecast

Almanac

Astronomy

May. 29, 2017 Rise Set
Actual Time
Civil Twilight
Nautical Twilight
Astronomical Twilight
Moon
Length of Visible Light
Length of Day
Tomorrow will be .
, % of the Moon is Illuminated

Today's Extremes

State Highs State Lows

Community

WunderPhotos

Category 6

Welcome to Category 6. This is the collective home for Weather Underground's featured writeups by Dr. Jeff Masters (right), Bob Henson (left), Chris Burt, and other regular contributors.

Nearby

Air Quality

  Air Quality AQ Index Pollutant
Not available.

Snow Depth

Station Depth Elevation

Earthquake Activity

City Distance Mag. Time & Date
Minimum magnitude displayed is 2.5.

Coastal Water Temperatures

Place Temperature

Stations

Nearby Weather Stations

Station Location Temp. Windchill Dew Point Humidity Wind Precip. Elev Updated Type
                   

Watches & Warnings

There are currently no watches in effect.